createdAt,value
2017-10-29T00:00:42.163Z,0.00
2017-10-29T00:02:35.158Z,0.00
2017-10-29T00:03:35.213Z,0.00
2017-10-29T00:05:28.223Z,0.00
2017-10-29T00:06:28.263Z,0.00
2017-10-29T00:08:21.267Z,0.00
2017-10-29T00:09:21.310Z,0.00
2017-10-29T00:11:14.297Z,0.00
2017-10-29T00:12:14.355Z,0.00
2017-10-29T00:14:07.364Z,0.00
2017-10-29T00:15:07.402Z,0.00
2017-10-29T00:17:00.385Z,0.00
2017-10-29T00:18:00.445Z,0.00
2017-10-29T00:19:53.453Z,0.00
2017-10-29T00:20:53.490Z,0.00
2017-10-29T00:22:46.474Z,0.00
2017-10-29T00:23:46.535Z,0.00
2017-10-29T00:25:40.048Z,0.00
2017-10-29T00:26:40.090Z,0.00
2017-10-29T00:28:33.080Z,0.00
2017-10-29T00:29:33.148Z,0.00
2017-10-29T00:31:26.149Z,0.00
2017-10-29T00:32:26.191Z,0.00
2017-10-29T00:34:19.195Z,0.00
2017-10-29T00:35:19.235Z,0.00
2017-10-29T00:37:12.218Z,0.00
2017-10-29T00:38:12.281Z,0.00
2017-10-29T00:40:05.288Z,0.00
2017-10-29T00:41:05.324Z,0.00
2017-10-29T00:42:58.314Z,0.00
2017-10-29T00:43:58.371Z,0.00
2017-10-29T00:45:51.375Z,0.00
2017-10-29T00:46:51.412Z,0.00
2017-10-29T00:48:44.404Z,0.00
2017-10-29T00:49:44.458Z,0.00
2017-10-29T00:51:37.462Z,0.00
2017-10-29T00:52:37.503Z,0.00
2017-10-29T00:54:30.490Z,0.00
2017-10-29T00:55:30.548Z,0.00
2017-10-29T00:57:23.553Z,0.00
2017-10-29T00:58:23.597Z,0.00
2017-10-29T01:00:16.582Z,0.00
2017-10-29T01:01:16.638Z,0.00
2017-10-29T01:03:09.645Z,0.00
2017-10-29T01:04:09.683Z,0.00
2017-10-29T01:06:02.682Z,0.00
2017-10-29T01:07:02.731Z,0.00
2017-10-29T01:08:55.733Z,0.00
2017-10-29T01:09:55.774Z,0.00
2017-10-29T01:11:48.779Z,0.00
2017-10-29T01:12:48.820Z,0.00
2017-10-29T01:14:41.819Z,0.00
2017-10-29T01:15:41.867Z,0.00
2017-10-29T01:17:34.875Z,0.00
2017-10-29T01:18:34.915Z,0.00
2017-10-29T01:20:27.905Z,0.00
2017-10-29T01:21:27.963Z,0.00
2017-10-29T01:23:20.969Z,0.00
2017-10-29T01:24:21.007Z,0.00
2017-10-29T01:26:13.997Z,0.00
2017-10-29T01:27:14.062Z,0.00
2017-10-29T01:29:07.065Z,0.00
2017-10-29T01:30:07.100Z,0.00
2017-10-29T01:32:00.090Z,0.00
2017-10-29T01:33:00.148Z,0.00
2017-10-29T01:34:53.151Z,0.00
2017-10-29T01:35:53.193Z,0.00
2017-10-29T01:37:46.181Z,0.00
2017-10-29T01:38:46.242Z,0.00
2017-10-29T01:40:39.243Z,0.00
2017-10-29T01:41:39.286Z,0.00
2017-10-29T01:43:32.287Z,0.00
2017-10-29T01:44:32.332Z,0.00
2017-10-29T01:46:25.317Z,0.00
2017-10-29T01:47:25.373Z,0.00
2017-10-29T01:49:18.380Z,0.00
2017-10-29T01:50:18.420Z,0.00
2017-10-29T01:52:11.406Z,0.00
2017-10-29T01:53:11.465Z,0.00
2017-10-29T01:55:04.472Z,0.00
2017-10-29T01:56:04.511Z,0.00
2017-10-29T01:57:57.502Z,0.00
2017-10-29T01:58:57.557Z,0.00
2017-10-29T02:00:50.561Z,0.00
2017-10-29T02:01:50.602Z,0.00
2017-10-29T02:03:43.620Z,0.00
2017-10-29T02:04:43.647Z,0.00
2017-10-29T02:06:36.634Z,0.00
2017-10-29T02:07:36.691Z,0.00
2017-10-29T02:09:29.697Z,0.00
2017-10-29T02:10:29.738Z,0.00
2017-10-29T02:12:22.728Z,0.00
2017-10-29T02:13:22.788Z,0.00
2017-10-29T02:15:15.795Z,0.00
2017-10-29T02:16:15.833Z,0.00
2017-10-29T02:18:08.825Z,0.00
2017-10-29T02:19:08.881Z,0.00
2017-10-29T02:21:01.885Z,0.00
2017-10-29T02:22:01.926Z,0.00
2017-10-29T02:23:54.915Z,0.00
2017-10-29T02:24:54.971Z,0.00
2017-10-29T02:26:47.978Z,0.00
2017-10-29T02:27:48.018Z,0.00
2017-10-29T02:29:41.023Z,0.00
2017-10-29T02:30:41.063Z,0.00
2017-10-29T02:32:34.060Z,0.00
2017-10-29T02:33:34.109Z,0.00
2017-10-29T02:35:27.118Z,0.00
2017-10-29T02:36:27.159Z,0.00
2017-10-29T02:38:20.147Z,0.00
2017-10-29T02:39:20.211Z,0.00
2017-10-29T02:41:13.222Z,0.00
2017-10-29T02:42:13.268Z,0.00
2017-10-29T02:44:06.249Z,0.00
2017-10-29T02:45:06.314Z,0.00
2017-10-29T02:46:59.319Z,0.00
2017-10-29T02:47:59.359Z,0.00
2017-10-29T02:49:52.341Z,0.00
2017-10-29T02:50:52.400Z,0.00
2017-10-29T02:52:45.407Z,0.00
2017-10-29T02:53:45.449Z,0.00
2017-10-29T02:55:38.431Z,0.00
2017-10-29T02:56:38.493Z,0.00
2017-10-29T02:58:31.501Z,0.00
2017-10-29T02:59:31.537Z,0.00
2017-10-29T03:01:24.520Z,0.00
2017-10-29T03:02:24.581Z,0.00
2017-10-29T03:04:17.589Z,0.00
2017-10-29T03:05:17.630Z,0.00
2017-10-29T03:07:10.637Z,0.00
2017-10-29T03:08:10.679Z,0.00
2017-10-29T03:10:03.671Z,0.00
2017-10-29T03:11:03.729Z,0.00
2017-10-29T03:12:56.749Z,0.00
2017-10-29T03:13:56.776Z,0.00
2017-10-29T03:15:49.764Z,0.00
2017-10-29T03:16:49.828Z,0.00
2017-10-29T03:18:42.832Z,0.00
2017-10-29T03:19:42.870Z,0.00
2017-10-29T03:21:35.860Z,0.00
2017-10-29T03:22:35.921Z,0.00
2017-10-29T03:24:28.938Z,0.00
2017-10-29T03:25:28.975Z,0.00
2017-10-29T03:27:21.967Z,0.00
2017-10-29T03:28:22.022Z,0.00
2017-10-29T03:30:15.030Z,0.00
2017-10-29T03:31:15.078Z,0.00
2017-10-29T03:33:08.058Z,0.00
2017-10-29T03:34:08.115Z,0.00
2017-10-29T03:36:01.120Z,0.00
2017-10-29T03:37:01.159Z,0.00
2017-10-29T03:38:55.163Z,0.00
2017-10-29T03:39:55.204Z,0.00
2017-10-29T03:41:48.190Z,0.00
2017-10-29T03:42:48.248Z,0.00
2017-10-29T03:44:41.254Z,0.00
2017-10-29T03:45:41.304Z,0.00
2017-10-29T03:47:34.276Z,0.00
2017-10-29T03:48:34.344Z,0.00
2017-10-29T03:50:27.341Z,0.00
2017-10-29T03:51:27.381Z,0.00
2017-10-29T03:53:20.370Z,0.00
2017-10-29T03:54:20.428Z,0.00
2017-10-29T03:56:13.430Z,0.00
2017-10-29T03:57:13.468Z,0.00
2017-10-29T03:59:06.457Z,0.00
2017-10-29T04:00:06.513Z,0.00
2017-10-29T04:01:59.521Z,0.00
2017-10-29T04:02:59.558Z,0.00
2017-10-29T04:04:52.545Z,0.00
2017-10-29T04:05:52.601Z,0.00
2017-10-29T04:07:45.607Z,0.00
2017-10-29T04:08:45.645Z,0.00
2017-10-29T04:10:38.651Z,0.00
2017-10-29T04:11:38.690Z,0.00
2017-10-29T04:13:31.680Z,0.00
2017-10-29T04:14:31.734Z,0.00
2017-10-29T04:16:24.738Z,0.00
2017-10-29T04:17:24.776Z,0.00
2017-10-29T04:19:17.768Z,0.00
2017-10-29T04:20:17.823Z,0.00
2017-10-29T04:22:10.828Z,0.00
2017-10-29T04:23:10.869Z,0.00
2017-10-29T04:25:04.369Z,0.00
2017-10-29T04:26:04.418Z,0.00
2017-10-29T04:27:57.423Z,0.00
2017-10-29T04:28:57.470Z,0.00
2017-10-29T04:30:50.443Z,0.00
2017-10-29T04:31:50.506Z,0.00
2017-10-29T04:33:43.509Z,0.00
2017-10-29T04:34:43.549Z,0.00
2017-10-29T04:36:36.576Z,0.00
2017-10-29T04:37:36.593Z,0.00
2017-10-29T04:39:29.579Z,0.00
2017-10-29T04:40:29.638Z,0.00
2017-10-29T04:42:22.650Z,0.00
2017-10-29T04:43:22.689Z,0.00
2017-10-29T04:45:15.678Z,0.00
2017-10-29T04:46:15.737Z,0.00
2017-10-29T04:48:08.748Z,0.00
2017-10-29T04:49:08.785Z,0.00
2017-10-29T04:51:01.767Z,0.00
2017-10-29T04:52:01.828Z,0.00
2017-10-29T04:53:54.845Z,0.00
2017-10-29T04:54:54.874Z,0.00
2017-10-29T04:56:47.860Z,0.00
2017-10-29T04:57:47.918Z,0.00
2017-10-29T04:59:40.926Z,0.00
2017-10-29T05:00:40.960Z,0.00
2017-10-29T05:02:33.943Z,0.00
2017-10-29T05:03:34.005Z,0.00
2017-10-29T05:05:27.009Z,0.00
2017-10-29T05:06:27.047Z,0.00
2017-10-29T05:08:20.034Z,0.00
2017-10-29T05:09:20.091Z,0.00
2017-10-29T05:11:13.098Z,0.00
2017-10-29T05:12:13.137Z,0.00
2017-10-29T05:14:06.144Z,0.00
2017-10-29T05:15:06.181Z,0.00
2017-10-29T05:16:59.270Z,0.00
2017-10-29T05:17:59.227Z,0.00
2017-10-29T05:19:52.236Z,0.00
2017-10-29T05:20:52.276Z,0.00
2017-10-29T05:22:45.259Z,0.00
2017-10-29T05:23:45.315Z,0.00
2017-10-29T05:25:38.831Z,0.00
2017-10-29T05:26:38.866Z,0.00
2017-10-29T05:28:31.855Z,0.00
2017-10-29T05:29:31.913Z,0.00
2017-10-29T05:31:24.922Z,0.00
2017-10-29T05:32:24.959Z,0.00
2017-10-29T05:34:17.942Z,0.00
2017-10-29T05:35:18.004Z,0.00
2017-10-29T05:37:11.012Z,0.00
2017-10-29T05:38:11.048Z,0.00
2017-10-29T05:40:04.072Z,0.00
2017-10-29T05:41:04.094Z,0.00
2017-10-29T05:42:57.081Z,0.00
2017-10-29T05:43:57.138Z,0.00
2017-10-29T05:45:50.196Z,0.00
2017-10-29T05:46:50.180Z,4.00
2017-10-29T05:48:43.175Z,0.00
2017-10-29T05:49:43.223Z,4.00
2017-10-29T05:51:36.229Z,4.00
2017-10-29T05:52:36.267Z,4.00
2017-10-29T05:54:29.254Z,8.00
2017-10-29T05:55:29.311Z,8.00
2017-10-29T05:57:22.319Z,12.00
2017-10-29T05:58:22.355Z,16.00
2017-10-29T06:00:15.343Z,24.00
2017-10-29T06:01:15.402Z,28.00
2017-10-29T06:03:08.404Z,40.00
2017-10-29T06:04:08.443Z,48.00
2017-10-29T06:06:01.430Z,56.00
2017-10-29T06:07:01.487Z,68.00
2017-10-29T06:08:54.492Z,84.00
2017-10-29T06:09:54.529Z,96.00
2017-10-29T06:11:47.533Z,120.00
2017-10-29T06:12:47.572Z,136.00
2017-10-29T06:14:40.559Z,164.00
2017-10-29T06:15:40.616Z,180.00
2017-10-29T06:17:33.620Z,212.00
2017-10-29T06:18:33.706Z,232.00
2017-10-29T06:20:26.646Z,272.00
2017-10-29T06:21:26.703Z,292.00
2017-10-29T06:23:19.731Z,328.00
2017-10-29T06:24:19.746Z,352.00
2017-10-29T06:26:12.735Z,388.00
2017-10-29T06:27:12.789Z,400.00
2017-10-29T06:29:05.800Z,432.00
2017-10-29T06:30:05.840Z,488.00
2017-10-29T06:31:58.819Z,532.00
2017-10-29T06:32:58.885Z,596.00
2017-10-29T06:34:51.885Z,644.00
2017-10-29T06:35:51.945Z,680.00
2017-10-29T06:37:44.909Z,772.00
2017-10-29T06:38:44.965Z,692.00
2017-10-29T06:40:37.974Z,740.00
2017-10-29T06:41:38.010Z,780.00
2017-10-29T06:43:31.049Z,900.00
2017-10-29T06:44:31.073Z,980.00
2017-10-29T06:46:24.057Z,1088.00
2017-10-29T06:47:24.114Z,1152.00
2017-10-29T06:49:17.121Z,1252.00
2017-10-29T06:50:17.161Z,1260.00
2017-10-29T06:52:10.141Z,1356.00
2017-10-29T06:53:10.201Z,1396.00
2017-10-29T06:55:03.216Z,1548.00
2017-10-29T06:56:03.242Z,1640.00
2017-10-29T06:57:56.256Z,1892.00
2017-10-29T06:58:56.392Z,2032.00
2017-10-29T07:00:49.339Z,2300.00
2017-10-29T07:01:49.360Z,2440.00
2017-10-29T07:03:42.344Z,2660.00
2017-10-29T07:04:42.400Z,2724.00
2017-10-29T07:06:35.430Z,2700.00
2017-10-29T07:07:35.460Z,2676.00
2017-10-29T07:09:28.430Z,2812.00
2017-10-29T07:10:28.490Z,2844.00
2017-10-29T07:12:21.499Z,3108.00
2017-10-29T07:13:21.536Z,3820.00
2017-10-29T07:15:14.565Z,2972.00
2017-10-29T07:16:14.591Z,2468.00
2017-10-29T07:18:07.573Z,2136.00
2017-10-29T07:19:07.630Z,2228.00
2017-10-29T07:21:00.703Z,2520.00
2017-10-29T07:22:00.672Z,2904.00
2017-10-29T07:23:53.653Z,5408.00
2017-10-29T07:24:53.713Z,5848.00
2017-10-29T07:26:46.717Z,5620.00
2017-10-29T07:27:46.755Z,4784.00
2017-10-29T07:29:39.743Z,4748.00
2017-10-29T07:30:39.802Z,3800.00
2017-10-29T07:32:32.806Z,2896.00
2017-10-29T07:33:32.846Z,2616.00
2017-10-29T07:35:25.834Z,4200.00
2017-10-29T07:36:25.891Z,4840.00
2017-10-29T07:38:18.901Z,6336.00
2017-10-29T07:39:18.939Z,6516.00
2017-10-29T07:41:11.958Z,4176.00
2017-10-29T07:42:11.988Z,6336.00
2017-10-29T07:44:04.973Z,7388.00
2017-10-29T07:45:05.030Z,6288.00
2017-10-29T07:46:58.033Z,4104.00
2017-10-29T07:47:58.072Z,4688.00
2017-10-29T07:49:51.055Z,6444.00
2017-10-29T07:50:51.116Z,6832.00
2017-10-29T07:52:44.125Z,3916.00
2017-10-29T07:53:44.163Z,4044.00
2017-10-29T07:55:37.154Z,7268.00
2017-10-29T07:56:37.237Z,7376.00
2017-10-29T07:58:30.257Z,6828.00
2017-10-29T07:59:30.255Z,6176.00
2017-10-29T08:01:23.246Z,7160.00
2017-10-29T08:02:23.299Z,7140.00
2017-10-29T08:04:16.305Z,7388.00
2017-10-29T08:05:16.365Z,7456.00
2017-10-29T08:07:09.351Z,7440.00
2017-10-29T08:08:09.391Z,7044.00
2017-10-29T08:10:02.379Z,6572.00
2017-10-29T08:11:02.458Z,6504.00
2017-10-29T08:12:55.484Z,6396.00
2017-10-29T08:13:55.487Z,7096.00
2017-10-29T08:15:48.473Z,5812.00
2017-10-29T08:16:48.534Z,5452.00
2017-10-29T08:18:41.545Z,5080.00
2017-10-29T08:19:41.580Z,6576.00
2017-10-29T08:21:34.570Z,6736.00
2017-10-29T08:22:34.629Z,6704.00
2017-10-29T08:24:27.642Z,6868.00
2017-10-29T08:25:27.679Z,6820.00
2017-10-29T08:27:20.672Z,6696.00
2017-10-29T08:28:20.734Z,6740.00
2017-10-29T08:30:13.751Z,6712.00
2017-10-29T08:31:13.783Z,6544.00
2017-10-29T08:33:06.771Z,6616.00
2017-10-29T08:34:06.830Z,6544.00
2017-10-29T08:35:59.839Z,6520.00
2017-10-29T08:36:59.883Z,6520.00
2017-10-29T08:38:52.889Z,6640.00
2017-10-29T08:39:52.936Z,6572.00
2017-10-29T08:41:45.936Z,6276.00
2017-10-29T08:42:45.979Z,6280.00
2017-10-29T08:44:38.987Z,6228.00
2017-10-29T08:45:39.028Z,6332.00
2017-10-29T08:47:32.017Z,6188.00
2017-10-29T08:48:32.078Z,6300.00
2017-10-29T08:50:25.090Z,7120.00
2017-10-29T08:51:25.123Z,8068.00
2017-10-29T08:53:18.108Z,10096.00
2017-10-29T08:54:18.170Z,12060.00
2017-10-29T08:56:11.179Z,9264.00
2017-10-29T08:57:11.218Z,6448.00
2017-10-29T08:59:04.213Z,6376.00
2017-10-29T09:00:04.276Z,6164.00
2017-10-29T09:01:57.291Z,4732.00
2017-10-29T09:02:57.336Z,4084.00
2017-10-29T09:04:50.323Z,4920.00
2017-10-29T09:05:50.378Z,4664.00
2017-10-29T09:07:43.387Z,4812.00
2017-10-29T09:08:43.425Z,4600.00
2017-10-29T09:10:36.435Z,6652.00
2017-10-29T09:11:36.472Z,7656.00
2017-10-29T09:13:29.461Z,6312.00
2017-10-29T09:14:29.519Z,7724.00
2017-10-29T09:16:22.528Z,5672.00
2017-10-29T09:17:22.584Z,7472.00
2017-10-29T09:19:15.558Z,3860.00
2017-10-29T09:20:15.616Z,3704.00
2017-10-29T09:22:08.623Z,4584.00
2017-10-29T09:23:08.663Z,4552.00
2017-10-29T09:25:01.652Z,4256.00
2017-10-29T09:26:01.710Z,4248.00
2017-10-29T09:27:54.720Z,4248.00
2017-10-29T09:28:54.758Z,4292.00
2017-10-29T09:30:47.748Z,4428.00
2017-10-29T09:31:47.803Z,4488.00
2017-10-29T09:33:40.820Z,4688.00
2017-10-29T09:34:40.861Z,4812.00
2017-10-29T09:36:33.851Z,5016.00
2017-10-29T09:37:34.898Z,5216.00
2017-10-29T09:39:26.936Z,4688.00
2017-10-29T09:40:26.959Z,4656.00
2017-10-29T09:42:19.951Z,5896.00
2017-10-29T09:43:20.006Z,9036.00
2017-10-29T09:45:13.013Z,8556.00
2017-10-29T09:46:13.052Z,8844.00
2017-10-29T09:48:06.068Z,8416.00
2017-10-29T09:49:06.100Z,4712.00
2017-10-29T09:50:59.091Z,4104.00
2017-10-29T09:51:59.147Z,4584.00
2017-10-29T09:53:52.153Z,4212.00
2017-10-29T09:54:52.195Z,3052.00
2017-10-29T09:56:45.179Z,3628.00
2017-10-29T09:57:45.240Z,5796.00
2017-10-29T09:59:38.247Z,6196.00
2017-10-29T10:00:38.286Z,6316.00
2017-10-29T10:02:31.275Z,4312.00
2017-10-29T10:03:31.333Z,3844.00
2017-10-29T10:05:24.382Z,4328.00
2017-10-29T10:06:24.420Z,4188.00
2017-10-29T10:08:17.410Z,4100.00
2017-10-29T10:09:17.465Z,3784.00
2017-10-29T10:11:10.547Z,4464.00
2017-10-29T10:12:10.515Z,5348.00
2017-10-29T10:14:03.510Z,5548.00
2017-10-29T10:15:03.561Z,5712.00
2017-10-29T10:16:56.570Z,7908.00
2017-10-29T10:17:56.608Z,11272.00
2017-10-29T10:19:49.597Z,9752.00
2017-10-29T10:20:49.652Z,8724.00
2017-10-29T10:22:42.664Z,8964.00
2017-10-29T10:23:42.704Z,7892.00
2017-10-29T10:25:36.239Z,7308.00
2017-10-29T10:26:36.257Z,6804.00
2017-10-29T10:28:29.271Z,5968.00
2017-10-29T10:29:29.311Z,6340.00
2017-10-29T10:31:22.329Z,7176.00
2017-10-29T10:32:22.359Z,4500.00
2017-10-29T10:34:15.343Z,4124.00
2017-10-29T10:35:15.404Z,4120.00
2017-10-29T10:37:08.413Z,3968.00
2017-10-29T10:38:08.454Z,3688.00
2017-10-29T10:40:01.438Z,4040.00
2017-10-29T10:41:01.502Z,5000.00
2017-10-29T10:42:54.509Z,4756.00
2017-10-29T10:43:54.544Z,4628.00
2017-10-29T10:45:47.532Z,7876.00
2017-10-29T10:46:47.592Z,10636.00
2017-10-29T10:48:40.603Z,8896.00
2017-10-29T10:49:40.636Z,9168.00
2017-10-29T10:51:33.626Z,11544.00
2017-10-29T10:52:33.686Z,9844.00
2017-10-29T10:54:26.694Z,5916.00
2017-10-29T10:55:26.731Z,7076.00
2017-10-29T10:57:19.721Z,7884.00
2017-10-29T10:58:19.780Z,8256.00
2017-10-29T11:00:12.789Z,9236.00
2017-10-29T11:01:12.830Z,7244.00
2017-10-29T11:03:05.819Z,4180.00
2017-10-29T11:04:05.899Z,3396.00
2017-10-29T11:05:58.888Z,2632.00
2017-10-29T11:06:58.925Z,2376.00
2017-10-29T11:08:51.945Z,3444.00
2017-10-29T11:09:51.971Z,4392.00
2017-10-29T11:11:44.960Z,7576.00
2017-10-29T11:12:45.023Z,8252.00
2017-10-29T11:14:38.039Z,8304.00
2017-10-29T11:15:38.064Z,8200.00
2017-10-29T11:17:31.050Z,6744.00
2017-10-29T11:18:31.110Z,5556.00
2017-10-29T11:20:24.124Z,3616.00
2017-10-29T11:21:24.156Z,3204.00
2017-10-29T11:23:17.145Z,3068.00
2017-10-29T11:24:17.206Z,3104.00
2017-10-29T11:26:10.757Z,3164.00
2017-10-29T11:27:10.768Z,3120.00
2017-10-29T11:29:03.746Z,3156.00
2017-10-29T11:30:03.804Z,3200.00
2017-10-29T11:31:56.808Z,3248.00
2017-10-29T11:32:56.847Z,3264.00
2017-10-29T11:34:49.835Z,3252.00
2017-10-29T11:35:49.893Z,3212.00
2017-10-29T11:37:42.897Z,3212.00
2017-10-29T11:38:42.936Z,3204.00
2017-10-29T11:40:35.928Z,3260.00
2017-10-29T11:41:35.983Z,3288.00
2017-10-29T11:43:28.990Z,3336.00
2017-10-29T11:44:29.026Z,3344.00
2017-10-29T11:46:22.036Z,3324.00
2017-10-29T11:47:22.070Z,3304.00
2017-10-29T11:49:15.059Z,3400.00
2017-10-29T11:50:15.116Z,3452.00
2017-10-29T11:52:08.151Z,3704.00
2017-10-29T11:53:08.189Z,3376.00
2017-10-29T11:55:01.144Z,2924.00
2017-10-29T11:56:01.203Z,3308.00
2017-10-29T11:57:54.209Z,3184.00
2017-10-29T11:58:54.247Z,3668.00
2017-10-29T12:00:47.238Z,3444.00
2017-10-29T12:01:47.295Z,3060.00
2017-10-29T12:03:40.365Z,2980.00
2017-10-29T12:04:40.344Z,3160.00
2017-10-29T12:06:33.333Z,3092.00
2017-10-29T12:07:33.394Z,2864.00
2017-10-29T12:09:26.401Z,2780.00
2017-10-29T12:10:26.464Z,2780.00
2017-10-29T12:12:19.428Z,2772.00
2017-10-29T12:13:19.485Z,2800.00
2017-10-29T12:15:12.492Z,3028.00
2017-10-29T12:16:12.544Z,3404.00
2017-10-29T12:18:05.515Z,5212.00
2017-10-29T12:19:05.578Z,7036.00
2017-10-29T12:20:58.582Z,6912.00
2017-10-29T12:21:58.620Z,6552.00
2017-10-29T12:23:51.623Z,6892.00
2017-10-29T12:24:51.684Z,6132.00
2017-10-29T12:26:44.680Z,5116.00
2017-10-29T12:27:44.719Z,5084.00
2017-10-29T12:29:37.707Z,5428.00
2017-10-29T12:30:37.774Z,5584.00
2017-10-29T12:32:30.787Z,6736.00
2017-10-29T12:33:30.824Z,5460.00
2017-10-29T12:35:23.823Z,2812.00
2017-10-29T12:36:23.868Z,2700.00
2017-10-29T12:38:16.855Z,2584.00
2017-10-29T12:39:16.912Z,2612.00
2017-10-29T12:41:09.923Z,2624.00
2017-10-29T12:42:09.958Z,2640.00
2017-10-29T12:44:02.939Z,2632.00
2017-10-29T12:45:03.003Z,2264.00
2017-10-29T12:46:56.004Z,2248.00
2017-10-29T12:47:56.054Z,2316.00
2017-10-29T12:49:49.032Z,2652.00
2017-10-29T12:50:49.092Z,2752.00
2017-10-29T12:52:42.094Z,3864.00
2017-10-29T12:53:42.133Z,3988.00
2017-10-29T12:55:35.127Z,2620.00
2017-10-29T12:56:35.176Z,2772.00
2017-10-29T12:58:28.184Z,3200.00
2017-10-29T12:59:28.223Z,3284.00
2017-10-29T13:01:21.228Z,3144.00
2017-10-29T13:02:21.268Z,2744.00
2017-10-29T13:04:14.274Z,2296.00
2017-10-29T13:05:14.313Z,2612.00
2017-10-29T13:07:07.326Z,2176.00
2017-10-29T13:08:07.363Z,2112.00
2017-10-29T13:10:00.352Z,2296.00
2017-10-29T13:11:00.413Z,2664.00
2017-10-29T13:12:53.419Z,3016.00
2017-10-29T13:13:53.454Z,3048.00
2017-10-29T13:15:46.441Z,2672.00
2017-10-29T13:16:46.498Z,2524.00
2017-10-29T13:18:39.501Z,2552.00
2017-10-29T13:19:39.541Z,2564.00
2017-10-29T13:21:32.524Z,2572.00
2017-10-29T13:22:32.585Z,2692.00
2017-10-29T13:24:25.592Z,3280.00
2017-10-29T13:25:25.630Z,3468.00
2017-10-29T13:27:18.614Z,3720.00
2017-10-29T13:28:18.691Z,4084.00
2017-10-29T13:30:11.682Z,4220.00
2017-10-29T13:31:11.719Z,3468.00
2017-10-29T13:33:04.719Z,5172.00
2017-10-29T13:34:04.765Z,6296.00
2017-10-29T13:35:57.771Z,5912.00
2017-10-29T13:36:57.811Z,5768.00
2017-10-29T13:38:50.856Z,4692.00
2017-10-29T13:39:50.853Z,4068.00
2017-10-29T13:41:43.838Z,3280.00
2017-10-29T13:42:43.899Z,3468.00
2017-10-29T13:44:36.998Z,3484.00
2017-10-29T13:45:36.944Z,2496.00
2017-10-29T13:47:29.936Z,2048.00
2017-10-29T13:48:30.001Z,2132.00
2017-10-29T13:50:23.013Z,2284.00
2017-10-29T13:51:23.049Z,2240.00
2017-10-29T13:53:16.028Z,2192.00
2017-10-29T13:54:16.089Z,2192.00
2017-10-29T13:56:09.094Z,2200.00
2017-10-29T13:57:09.132Z,2216.00
2017-10-29T13:59:02.120Z,2472.00
2017-10-29T14:00:02.182Z,3004.00
2017-10-29T14:01:55.185Z,5168.00
2017-10-29T14:02:55.226Z,5180.00
2017-10-29T14:04:48.211Z,4740.00
2017-10-29T14:05:48.282Z,5064.00
2017-10-29T14:07:41.271Z,3284.00
2017-10-29T14:08:41.310Z,3040.00
2017-10-29T14:10:34.316Z,5232.00
2017-10-29T14:11:34.356Z,6364.00
2017-10-29T14:13:27.355Z,6008.00
2017-10-29T14:14:27.407Z,6808.00
2017-10-29T14:16:20.412Z,5184.00
2017-10-29T14:17:20.451Z,2568.00
2017-10-29T14:19:13.442Z,2060.00
2017-10-29T14:20:13.503Z,2036.00
2017-10-29T14:22:06.509Z,1848.00
2017-10-29T14:23:06.548Z,1732.00
2017-10-29T14:24:59.537Z,1664.00
2017-10-29T14:25:59.599Z,1744.00
2017-10-29T14:27:52.601Z,1812.00
2017-10-29T14:28:52.641Z,1792.00
2017-10-29T14:30:45.628Z,1768.00
2017-10-29T14:31:45.686Z,1756.00
2017-10-29T14:33:38.690Z,1744.00
2017-10-29T14:34:38.730Z,1732.00
2017-10-29T14:36:31.754Z,1716.00
2017-10-29T14:37:31.780Z,1700.00
2017-10-29T14:39:24.760Z,1688.00
2017-10-29T14:40:24.817Z,1680.00
2017-10-29T14:42:17.821Z,1668.00
2017-10-29T14:43:17.866Z,1664.00
2017-10-29T14:45:10.843Z,1648.00
2017-10-29T14:46:10.903Z,1640.00
2017-10-29T14:48:03.910Z,1620.00
2017-10-29T14:49:03.948Z,1612.00
2017-10-29T14:50:56.932Z,1596.00
2017-10-29T14:51:56.996Z,1584.00
2017-10-29T14:53:49.997Z,1560.00
2017-10-29T14:54:50.036Z,1548.00
2017-10-29T14:56:43.018Z,1472.00
2017-10-29T14:57:43.078Z,1424.00
2017-10-29T14:59:36.086Z,1380.00
2017-10-29T15:00:36.125Z,1368.00
2017-10-29T15:02:29.161Z,1352.00
2017-10-29T15:03:29.167Z,1356.00
2017-10-29T15:05:22.151Z,1448.00
2017-10-29T15:06:22.211Z,1344.00
2017-10-29T15:08:15.218Z,1248.00
2017-10-29T15:09:15.257Z,1228.00
2017-10-29T15:11:08.245Z,1168.00
2017-10-29T15:12:08.301Z,1156.00
2017-10-29T15:14:01.312Z,1164.00
2017-10-29T15:15:01.352Z,1176.00
2017-10-29T15:16:54.333Z,1180.00
2017-10-29T15:17:54.393Z,1172.00
2017-10-29T15:19:47.397Z,1188.00
2017-10-29T15:20:47.435Z,1188.00
2017-10-29T15:22:40.440Z,1164.00
2017-10-29T15:23:40.480Z,1148.00
2017-10-29T15:25:34.009Z,1112.00
2017-10-29T15:26:34.029Z,1096.00
2017-10-29T15:28:27.038Z,1064.00
2017-10-29T15:29:27.079Z,1048.00
2017-10-29T15:31:20.083Z,1016.00
2017-10-29T15:32:20.119Z,1004.00
2017-10-29T15:34:13.137Z,976.00
2017-10-29T15:35:13.163Z,944.00
2017-10-29T15:37:06.145Z,884.00
2017-10-29T15:38:06.206Z,852.00
2017-10-29T15:39:59.209Z,800.00
2017-10-29T15:40:59.252Z,776.00
2017-10-29T15:42:52.234Z,728.00
2017-10-29T15:43:52.292Z,704.00
2017-10-29T15:45:45.302Z,660.00
2017-10-29T15:46:45.342Z,636.00
2017-10-29T15:48:38.324Z,592.00
2017-10-29T15:49:38.381Z,572.00
2017-10-29T15:51:31.384Z,532.00
2017-10-29T15:52:31.439Z,508.00
2017-10-29T15:54:24.410Z,468.00
2017-10-29T15:55:24.465Z,444.00
2017-10-29T15:57:17.470Z,404.00
2017-10-29T15:58:17.508Z,384.00
2017-10-29T16:00:10.513Z,340.00
2017-10-29T16:01:10.550Z,320.00
2017-10-29T16:03:03.535Z,276.00
2017-10-29T16:04:03.597Z,256.00
2017-10-29T16:05:56.616Z,220.00
2017-10-29T16:06:56.641Z,200.00
2017-10-29T16:08:49.641Z,172.00
2017-10-29T16:09:49.683Z,156.00
2017-10-29T16:11:42.685Z,128.00
2017-10-29T16:12:42.738Z,120.00
2017-10-29T16:14:35.710Z,96.00
2017-10-29T16:15:35.767Z,84.00
2017-10-29T16:17:28.777Z,68.00
2017-10-29T16:18:28.808Z,60.00
2017-10-29T16:20:21.788Z,44.00
2017-10-29T16:21:21.848Z,40.00
2017-10-29T16:23:14.852Z,28.00
2017-10-29T16:24:14.889Z,24.00
2017-10-29T16:26:08.387Z,20.00
2017-10-29T16:27:08.442Z,16.00
2017-10-29T16:29:01.450Z,8.00
2017-10-29T16:30:01.497Z,12.00
2017-10-29T16:31:54.474Z,4.00
2017-10-29T16:32:54.528Z,4.00
2017-10-29T16:34:47.534Z,4.00
2017-10-29T16:35:47.570Z,4.00
2017-10-29T16:37:40.577Z,0.00
2017-10-29T16:38:40.610Z,4.00
2017-10-29T16:40:33.595Z,0.00
2017-10-29T16:41:33.652Z,0.00
2017-10-29T16:43:26.656Z,0.00
2017-10-29T16:44:26.698Z,0.00
2017-10-29T16:46:19.684Z,0.00
2017-10-29T16:47:19.745Z,0.00
2017-10-29T16:49:12.747Z,0.00
2017-10-29T16:50:12.799Z,0.00
2017-10-29T16:52:05.770Z,0.00
2017-10-29T16:53:05.831Z,0.00
2017-10-29T16:54:58.838Z,0.00
2017-10-29T16:55:58.886Z,0.00
2017-10-29T16:57:51.866Z,0.00
2017-10-29T16:58:51.914Z,0.00
2017-10-29T17:00:44.916Z,0.00
2017-10-29T17:01:44.953Z,0.00
2017-10-29T17:03:37.934Z,0.00
2017-10-29T17:04:37.995Z,0.00
2017-10-29T17:06:31.008Z,0.00
2017-10-29T17:07:31.042Z,0.00
2017-10-29T17:09:24.047Z,0.00
2017-10-29T17:10:24.089Z,0.00
2017-10-29T17:12:17.070Z,0.00
2017-10-29T17:13:17.127Z,0.00
2017-10-29T17:15:10.132Z,0.00
2017-10-29T17:16:10.170Z,0.00
2017-10-29T17:18:03.151Z,0.00
2017-10-29T17:19:03.213Z,0.00
2017-10-29T17:20:56.217Z,0.00
2017-10-29T17:21:56.252Z,0.00
2017-10-29T17:23:49.239Z,0.00
2017-10-29T17:24:49.296Z,0.00
2017-10-29T17:26:42.306Z,0.00
2017-10-29T17:27:42.342Z,0.00
2017-10-29T17:29:35.325Z,0.00
2017-10-29T17:30:35.383Z,0.00
2017-10-29T17:32:28.387Z,0.00
2017-10-29T17:33:28.421Z,0.00
2017-10-29T17:35:21.422Z,0.00
2017-10-29T17:36:21.462Z,0.00
2017-10-29T17:38:14.466Z,0.00
2017-10-29T17:39:14.503Z,0.00
2017-10-29T17:41:07.517Z,0.00
2017-10-29T17:42:07.541Z,0.00
2017-10-29T17:44:00.523Z,0.00
2017-10-29T17:45:00.580Z,0.00
2017-10-29T17:46:53.604Z,0.00
2017-10-29T17:47:53.622Z,0.00
2017-10-29T17:49:46.602Z,0.00
2017-10-29T17:50:46.661Z,0.00
2017-10-29T17:52:39.663Z,0.00
2017-10-29T17:53:39.707Z,0.00
2017-10-29T17:55:32.686Z,0.00
2017-10-29T17:56:32.743Z,0.00
2017-10-29T17:58:25.743Z,0.00
2017-10-29T17:59:25.782Z,0.00
2017-10-29T18:01:18.768Z,0.00
2017-10-29T18:02:18.823Z,0.00
2017-10-29T18:04:11.825Z,0.00
2017-10-29T18:05:11.881Z,0.00
2017-10-29T18:07:04.892Z,0.00
2017-10-29T18:08:04.910Z,0.00
2017-10-29T18:09:57.899Z,0.00
2017-10-29T18:10:57.950Z,0.00
2017-10-29T18:12:50.953Z,0.00